sensor_id;sensor_type;location;lat;lon;timestamp;pressure;altitude;pressure_sealevel;temperature;humidity
21185;BME280;18176;49.502;11.754;2023-08-06T00:02:44;96176.81;;;22.37;64.12
21185;BME280;18176;49.502;11.754;2023-08-06T00:06:47;96163.19;;;22.25;64.31
21185;BME280;18176;49.502;11.754;2023-08-06T00:10:48;96162.88;;;22.35;63.77
21185;BME280;18176;49.502;11.754;2023-08-06T00:14:50;96152.34;;;22.42;63.78
21185;BME280;18176;49.502;11.754;2023-08-06T00:18:51;96143.28;;;22.47;63.50
21185;BME280;18176;49.502;11.754;2023-08-06T00:22:54;96176.91;;;22.58;63.73
21185;BME280;18176;49.502;11.754;2023-08-06T00:26:54;96189.44;;;21.99;66.02
21185;BME280;18176;49.502;11.754;2023-08-06T00:30:55;96203.25;;;21.20;67.56
21185;BME280;18176;49.502;11.754;2023-08-06T00:34:56;96197.19;;;21.06;68.32
21185;BME280;18176;49.502;11.754;2023-08-06T00:38:59;96192.97;;;20.83;67.53
21185;BME280;18176;49.502;11.754;2023-08-06T00:42:59;96190.09;;;20.40;68.95
21185;BME280;18176;49.502;11.754;2023-08-06T00:47:00;96182.94;;;20.66;68.53
21185;BME280;18176;49.502;11.754;2023-08-06T00:51:02;96182.34;;;20.78;68.22
21185;BME280;18176;49.502;11.754;2023-08-06T00:55:07;96166.53;;;20.85;67.92
21185;BME280;18176;49.502;11.754;2023-08-06T00:59:07;96162.69;;;20.77;68.76
21185;BME280;18176;49.502;11.754;2023-08-06T01:03:09;96145.47;;;20.87;68.08
21185;BME280;18176;49.502;11.754;2023-08-06T01:07:32;96160.03;;;20.86;68.36
21185;BME280;18176;49.502;11.754;2023-08-06T01:11:57;96137.94;;;21.06;67.74
21185;BME280;18176;49.502;11.754;2023-08-06T01:16:00;96132.16;;;20.90;67.63
21185;BME280;18176;49.502;11.754;2023-08-06T01:20:01;96098.06;;;20.69;67.59
21185;BME280;18176;49.502;11.754;2023-08-06T01:24:04;96145.31;;;20.83;67.69
21185;BME280;18176;49.502;11.754;2023-08-06T01:28:13;96139.28;;;20.86;67.67
21185;BME280;18176;49.502;11.754;2023-08-06T01:32:17;96150.03;;;20.86;67.74
21185;BME280;18176;49.502;11.754;2023-08-06T01:36:21;96142.69;;;20.61;68.37
21185;BME280;18176;49.502;11.754;2023-08-06T01:40:24;96143.28;;;20.50;68.75
21185;BME280;18176;49.502;11.754;2023-08-06T01:44:26;96125.00;;;20.86;67.23
21185;BME280;18176;49.502;11.754;2023-08-06T01:48:26;96111.72;;;20.81;67.39
21185;BME280;18176;49.502;11.754;2023-08-06T01:52:27;96119.81;;;20.98;67.06
21185;BME280;18176;49.502;11.754;2023-08-06T01:56:30;96123.59;;;20.80;67.66
21185;BME280;18176;49.502;11.754;2023-08-06T02:00:31;96118.84;;;20.85;67.16
21185;BME280;18176;49.502;11.754;2023-08-06T02:04:31;96103.78;;;20.84;67.52
21185;BME280;18176;49.502;11.754;2023-08-06T02:08:32;96107.09;;;20.73;67.76
21185;BME280;18176;49.502;11.754;2023-08-06T02:12:35;96101.72;;;20.73;67.64
21185;BME280;18176;49.502;11.754;2023-08-06T02:16:35;96100.63;;;20.82;67.10
21185;BME280;18176;49.502;11.754;2023-08-06T02:20:36;96096.66;;;20.80;67.08
21185;BME280;18176;49.502;11.754;2023-08-06T02:24:36;96094.75;;;20.72;67.65
21185;BME280;18176;49.502;11.754;2023-08-06T02:28:39;96085.41;;;20.69;67.34
21185;BME280;18176;49.502;11.754;2023-08-06T02:32:39;96084.00;;;20.72;66.91
21185;BME280;18176;49.502;11.754;2023-08-06T02:36:40;96070.16;;;20.48;67.27
21185;BME280;18176;49.502;11.754;2023-08-06T02:40:44;96077.63;;;20.51;67.99
21185;BME280;18176;49.502;11.754;2023-08-06T02:44:49;96083.88;;;20.38;68.12
21185;BME280;18176;49.502;11.754;2023-08-06T02:48:49;96082.78;;;20.30;67.73
21185;BME280;18176;49.502;11.754;2023-08-06T02:52:49;96084.41;;;20.40;67.19
21185;BME280;18176;49.502;11.754;2023-08-06T02:56:50;96081.41;;;20.50;66.94
21185;BME280;18176;49.502;11.754;2023-08-06T03:01:06;96071.34;;;20.24;67.15
21185;BME280;18176;49.502;11.754;2023-08-06T03:05:14;96088.19;;;20.39;66.83
21185;BME280;18176;49.502;11.754;2023-08-06T03:09:17;96084.19;;;20.27;67.11
21185;BME280;18176;49.502;11.754;2023-08-06T03:13:19;96082.78;;;20.30;67.36
21185;BME280;18176;49.502;11.754;2023-08-06T03:17:22;96067.00;;;20.06;68.11
21185;BME280;18176;49.502;11.754;2023-08-06T03:21:23;96064.69;;;20.22;67.92
21185;BME280;18176;49.502;11.754;2023-08-06T03:25:23;96053.13;;;20.21;67.61
21185;BME280;18176;49.502;11.754;2023-08-06T03:29:24;96060.53;;;20.16;67.72
21185;BME280;18176;49.502;11.754;2023-08-06T03:33:31;96061.06;;;20.26;67.44
21185;BME280;18176;49.502;11.754;2023-08-06T03:37:34;96066.78;;;20.34;67.56
21185;BME280;18176;49.502;11.754;2023-08-06T03:41:36;96075.19;;;20.32;67.59
21185;BME280;18176;49.502;11.754;2023-08-06T03:45:36;96070.25;;;20.25;67.58
21185;BME280;18176;49.502;11.754;2023-08-06T03:49:39;96063.56;;;20.14;67.65
21185;BME280;18176;49.502;11.754;2023-08-06T03:53:42;96056.50;;;20.27;67.24
21185;BME280;18176;49.502;11.754;2023-08-06T03:57:42;96048.59;;;20.31;67.29
21185;BME280;18176;49.502;11.754;2023-08-06T04:01:45;96053.81;;;20.36;67.34
21185;BME280;18176;49.502;11.754;2023-08-06T04:05:48;96051.44;;;20.34;66.91
21185;BME280;18176;49.502;11.754;2023-08-06T04:09:53;96058.25;;;20.32;66.69
21185;BME280;18176;49.502;11.754;2023-08-06T04:13:55;96055.75;;;20.44;66.46
21185;BME280;18176;49.502;11.754;2023-08-06T04:17:55;96053.97;;;20.31;66.36
21185;BME280;18176;49.502;11.754;2023-08-06T04:21:58;96046.38;;;20.33;66.44
21185;BME280;18176;49.502;11.754;2023-08-06T04:25:59;96047.97;;;20.34;67.04
21185;BME280;18176;49.502;11.754;2023-08-06T04:30:04;96041.16;;;20.27;66.98
21185;BME280;18176;49.502;11.754;2023-08-06T04:34:07;96056.09;;;20.11;67.30
21185;BME280;18176;49.502;11.754;2023-08-06T04:38:11;96062.66;;;20.27;67.05
21185;BME280;18176;49.502;11.754;2023-08-06T04:42:11;96049.09;;;20.33;66.86
21185;BME280;18176;49.502;11.754;2023-08-06T04:46:12;96056.50;;;20.36;67.13
21185;BME280;18176;49.502;11.754;2023-08-06T04:50:12;96062.69;;;20.45;67.24
21185;BME280;18176;49.502;11.754;2023-08-06T04:54:15;96032.28;;;20.36;67.11
21185;BME280;18176;49.502;11.754;2023-08-06T04:58:15;96040.56;;;20.48;66.80
21185;BME280;18176;49.502;11.754;2023-08-06T05:02:15;96044.38;;;20.64;66.42
21185;BME280;18176;49.502;11.754;2023-08-06T05:06:16;96047.72;;;20.78;66.16
21185;BME280;18176;49.502;11.754;2023-08-06T05:10:19;96046.31;;;20.89;65.74
21185;BME280;18176;49.502;11.754;2023-08-06T05:14:19;96024.44;;;20.82;65.92
21185;BME280;18176;49.502;11.754;2023-08-06T05:18:19;96049.66;;;20.94;65.96
21185;BME280;18176;49.502;11.754;2023-08-06T05:22:20;96056.28;;;20.88;65.43
21185;BME280;18176;49.502;11.754;2023-08-06T05:26:23;96056.97;;;21.11;65.37
21185;BME280;18176;49.502;11.754;2023-08-06T05:30:23;96057.75;;;21.20;65.52
21185;BME280;18176;49.502;11.754;2023-08-06T05:34:24;96054.22;;;21.02;65.51
21185;BME280;18176;49.502;11.754;2023-08-06T05:38:24;96050.13;;;21.22;65.18
21185;BME280;18176;49.502;11.754;2023-08-06T05:42:27;96045.06;;;21.29;64.19
21185;BME280;18176;49.502;11.754;2023-08-06T05:46:27;96006.41;;;21.08;64.40
21185;BME280;18176;49.502;11.754;2023-08-06T05:50:27;96049.50;;;21.34;64.19
21185;BME280;18176;49.502;11.754;2023-08-06T05:54:28;96038.88;;;21.29;64.49
21185;BME280;18176;49.502;11.754;2023-08-06T05:58:30;96041.28;;;21.13;64.54
21185;BME280;18176;49.502;11.754;2023-08-06T06:02:31;96040.47;;;21.21;64.69
21185;BME280;18176;49.502;11.754;2023-08-06T06:06:31;96026.19;;;21.21;63.91
21185;BME280;18176;49.502;11.754;2023-08-06T06:10:31;96033.78;;;21.36;63.65
21185;BME280;18176;49.502;11.754;2023-08-06T06:14:34;96018.22;;;21.50;63.59
21185;BME280;18176;49.502;11.754;2023-08-06T06:18:35;96018.75;;;21.26;63.81
21185;BME280;18176;49.502;11.754;2023-08-06T06:22:35;96019.69;;;21.30;64.07
21185;BME280;18176;49.502;11.754;2023-08-06T06:26:36;96011.91;;;21.37;63.68
21185;BME280;18176;49.502;11.754;2023-08-06T06:30:38;96012.63;;;21.63;64.02
21185;BME280;18176;49.502;11.754;2023-08-06T06:34:39;96018.66;;;21.60;62.93
21185;BME280;18176;49.502;11.754;2023-08-06T06:38:39;96004.09;;;21.61;63.34
21185;BME280;18176;49.502;11.754;2023-08-06T06:42:40;96014.66;;;21.84;62.82
21185;BME280;18176;49.502;11.754;2023-08-06T06:46:43;96017.31;;;21.92;62.06
21185;BME280;18176;49.502;11.754;2023-08-06T06:50:47;96019.31;;;22.12;62.75
21185;BME280;18176;49.502;11.754;2023-08-06T06:54:48;96001.53;;;22.11;62.30
21185;BME280;18176;49.502;11.754;2023-08-06T06:58:48;95995.44;;;21.94;62.32
21185;BME280;18176;49.502;11.754;2023-08-06T07:02:51;95991.06;;;21.63;62.38
21185;BME280;18176;49.502;11.754;2023-08-06T07:06:52;95979.09;;;21.82;62.52
21185;BME280;18176;49.502;11.754;2023-08-06T07:11:01;95997.56;;;21.62;61.52
21185;BME280;18176;49.502;11.754;2023-08-06T07:15:02;95999.97;;;21.55;62.61
21185;BME280;18176;49.502;11.754;2023-08-06T07:19:05;95988.94;;;21.31;62.43
21185;BME280;18176;49.502;11.754;2023-08-06T07:23:05;95990.16;;;21.51;62.21
21185;BME280;18176;49.502;11.754;2023-08-06T07:27:06;95981.53;;;22.12;61.67
21185;BME280;18176;49.502;11.754;2023-08-06T07:31:07;95982.44;;;22.16;60.12
21185;BME280;18176;49.502;11.754;2023-08-06T07:35:11;95999.16;;;22.10;59.86
21185;BME280;18176;49.502;11.754;2023-08-06T07:39:13;96000.09;;;22.14;58.37
21185;BME280;18176;49.502;11.754;2023-08-06T07:43:14;95973.75;;;22.11;58.77
21185;BME280;18176;49.502;11.754;2023-08-06T07:47:15;96017.44;;;22.83;56.41
21185;BME280;18176;49.502;11.754;2023-08-06T07:51:17;96004.50;;;23.10;56.30
21185;BME280;18176;49.502;11.754;2023-08-06T07:55:18;95997.97;;;23.11;56.17
21185;BME280;18176;49.502;11.754;2023-08-06T07:59:19;95986.44;;;22.40;57.58
21185;BME280;18176;49.502;11.754;2023-08-06T08:03:19;95972.13;;;22.68;56.55
21185;BME280;18176;49.502;11.754;2023-08-06T08:07:22;95980.59;;;22.99;56.11
21185;BME280;18176;49.502;11.754;2023-08-06T08:11:26;95963.69;;;24.04;54.90
21185;BME280;18176;49.502;11.754;2023-08-06T08:15:28;95968.44;;;23.71;52.66
21185;BME280;18176;49.502;11.754;2023-08-06T08:19:28;95974.94;;;23.58;52.92
21185;BME280;18176;49.502;11.754;2023-08-06T08:23:31;95971.56;;;22.54;56.03
21185;BME280;18176;49.502;11.754;2023-08-06T08:27:31;95964.53;;;23.36;55.18
21185;BME280;18176;49.502;11.754;2023-08-06T08:31:32;95924.41;;;24.59;52.59
21185;BME280;18176;49.502;11.754;2023-08-06T08:35:37;95943.66;;;24.69;51.66
21185;BME280;18176;49.502;11.754;2023-08-06T08:39:40;95959.91;;;24.69;50.21
21185;BME280;18176;49.502;11.754;2023-08-06T08:43:41;95955.47;;;24.89;50.29
21185;BME280;18176;49.502;11.754;2023-08-06T08:47:43;95950.00;;;25.01;49.05
21185;BME280;18176;49.502;11.754;2023-08-06T08:51:46;95944.22;;;23.30;51.32
21185;BME280;18176;49.502;11.754;2023-08-06T08:55:50;95961.56;;;22.96;53.18
21185;BME280;18176;49.502;11.754;2023-08-06T08:59:50;95944.31;;;23.66;51.71
21185;BME280;18176;49.502;11.754;2023-08-06T09:03:53;95943.03;;;25.00;49.39
21185;BME280;18176;49.502;11.754;2023-08-06T09:07:57;95937.69;;;26.25;45.59
21185;BME280;18176;49.502;11.754;2023-08-06T09:12:12;95944.28;;;25.93;45.97
21185;BME280;18176;49.502;11.754;2023-08-06T09:16:14;95944.97;;;25.58;46.09
21185;BME280;18176;49.502;11.754;2023-08-06T09:20:16;95926.91;;;26.82;43.56
21185;BME280;18176;49.502;11.754;2023-08-06T09:24:17;95930.13;;;28.69;40.56
21185;BME280;18176;49.502;11.754;2023-08-06T09:28:20;95936.41;;;28.73;39.88
21185;BME280;18176;49.502;11.754;2023-08-06T09:32:21;95933.72;;;26.38;42.73
21185;BME280;18176;49.502;11.754;2023-08-06T09:36:22;95934.66;;;25.48;45.25
21185;BME280;18176;49.502;11.754;2023-08-06T09:40:27;95935.53;;;26.84;44.05
21185;BME280;18176;49.502;11.754;2023-08-06T09:44:33;95963.13;;;25.42;47.76
21185;BME280;18176;49.502;11.754;2023-08-06T09:48:34;95969.81;;;22.99;54.36
21185;BME280;18176;49.502;11.754;2023-08-06T09:52:34;95961.75;;;22.00;58.70
21185;BME280;18176;49.502;11.754;2023-08-06T09:56:35;95960.75;;;21.75;59.62
21185;BME280;18176;49.502;11.754;2023-08-06T10:00:38;95949.44;;;21.82;60.67
21185;BME280;18176;49.502;11.754;2023-08-06T10:04:39;95956.25;;;22.17;59.93
21185;BME280;18176;49.502;11.754;2023-08-06T10:08:41;95940.78;;;22.05;59.30
21185;BME280;18176;49.502;11.754;2023-08-06T10:12:47;95935.88;;;22.49;58.41
21185;BME280;18176;49.502;11.754;2023-08-06T10:16:51;95912.00;;;24.06;55.21
21185;BME280;18176;49.502;11.754;2023-08-06T10:20:52;95928.34;;;25.44;49.55
21185;BME280;18176;49.502;11.754;2023-08-06T10:24:54;95924.06;;;25.43;49.29
21185;BME280;18176;49.502;11.754;2023-08-06T10:28:55;95910.94;;;24.22;50.37
21185;BME280;18176;49.502;11.754;2023-08-06T10:33:00;95907.19;;;24.79;49.62
21185;BME280;18176;49.502;11.754;2023-08-06T10:37:02;95912.88;;;24.62;50.05
21185;BME280;18176;49.502;11.754;2023-08-06T10:41:04;95891.25;;;25.05;47.44
21185;BME280;18176;49.502;11.754;2023-08-06T10:45:18;95908.53;;;26.57;45.09
21185;BME280;18176;49.502;11.754;2023-08-06T10:49:24;95924.13;;;25.94;44.81
21185;BME280;18176;49.502;11.754;2023-08-06T10:53:25;95914.81;;;25.60;45.59
21185;BME280;18176;49.502;11.754;2023-08-06T10:57:29;95902.56;;;25.07;47.92
21185;BME280;18176;49.502;11.754;2023-08-06T11:01:30;95876.06;;;25.16;46.00
21185;BME280;18176;49.502;11.754;2023-08-06T11:05:36;95884.78;;;26.73;42.95
21185;BME280;18176;49.502;11.754;2023-08-06T11:09:37;95888.84;;;26.63;42.57
21185;BME280;18176;49.502;11.754;2023-08-06T11:13:38;95893.72;;;28.28;39.67
21185;BME280;18176;49.502;11.754;2023-08-06T11:17:40;95885.38;;;27.24;41.03
21185;BME280;18176;49.502;11.754;2023-08-06T11:21:47;95891.66;;;26.13;44.53
21185;BME280;18176;49.502;11.754;2023-08-06T11:25:48;95898.78;;;26.94;42.79
21185;BME280;18176;49.502;11.754;2023-08-06T11:29:48;95891.59;;;27.43;41.06
21185;BME280;18176;49.502;11.754;2023-08-06T11:33:50;95879.25;;;26.69;42.49
21185;BME280;18176;49.502;11.754;2023-08-06T11:37:54;95891.22;;;26.11;44.70
21185;BME280;18176;49.502;11.754;2023-08-06T11:41:54;95890.03;;;25.61;45.69
21185;BME280;18176;49.502;11.754;2023-08-06T11:45:57;95893.16;;;25.95;45.31
21185;BME280;18176;49.502;11.754;2023-08-06T11:49:58;95890.81;;;24.75;49.55
21185;BME280;18176;49.502;11.754;2023-08-06T11:54:02;95884.50;;;24.31;51.95
21185;BME280;18176;49.502;11.754;2023-08-06T11:58:04;95862.34;;;24.54;51.93
21185;BME280;18176;49.502;11.754;2023-08-06T12:02:08;95876.25;;;26.36;51.01
21185;BME280;18176;49.502;11.754;2023-08-06T12:06:09;95860.84;;;28.14;45.89
21185;BME280;18176;49.502;11.754;2023-08-06T12:10:13;95869.59;;;28.90;42.91
21185;BME280;18176;49.502;11.754;2023-08-06T12:14:14;95880.66;;;27.40;43.90
21185;BME280;18176;49.502;11.754;2023-08-06T12:18:14;95872.13;;;27.41;45.18
21185;BME280;18176;49.502;11.754;2023-08-06T12:22:16;95866.50;;;27.79;44.60
21185;BME280;18176;49.502;11.754;2023-08-06T12:26:23;95872.22;;;27.26;46.15
21185;BME280;18176;49.502;11.754;2023-08-06T12:30:23;95880.56;;;26.94;44.59
21185;BME280;18176;49.502;11.754;2023-08-06T12:34:24;95873.63;;;26.59;45.81
21185;BME280;18176;49.502;11.754;2023-08-06T12:38:32;95866.72;;;27.94;43.10
21185;BME280;18176;49.502;11.754;2023-08-06T12:42:35;95867.31;;;28.32;40.27
21185;BME280;18176;49.502;11.754;2023-08-06T12:46:35;95857.50;;;27.07;42.82
21185;BME280;18176;49.502;11.754;2023-08-06T12:50:36;95865.38;;;26.01;45.61
21185;BME280;18176;49.502;11.754;2023-08-06T12:54:36;95866.88;;;26.72;43.94
21185;BME280;18176;49.502;11.754;2023-08-06T12:58:39;95827.84;;;25.72;44.90
21185;BME280;18176;49.502;11.754;2023-08-06T13:02:40;95860.28;;;25.49;45.29
21185;BME280;18176;49.502;11.754;2023-08-06T13:06:40;95848.78;;;27.89;42.31
21185;BME280;18176;49.502;11.754;2023-08-06T13:10:41;95858.88;;;27.40;42.08
21185;BME280;18176;49.502;11.754;2023-08-06T13:14:43;95876.44;;;24.19;51.15
21185;BME280;18176;49.502;11.754;2023-08-06T13:18:44;95888.47;;;22.60;59.89
21185;BME280;18176;49.502;11.754;2023-08-06T13:22:44;95868.19;;;22.74;60.26
21185;BME280;18176;49.502;11.754;2023-08-06T13:26:48;95872.50;;;23.44;58.99
21185;BME280;18176;49.502;11.754;2023-08-06T13:30:51;95854.94;;;23.87;59.30
21185;BME280;18176;49.502;11.754;2023-08-06T13:34:53;95874.31;;;25.08;54.62
21185;BME280;18176;49.502;11.754;2023-08-06T13:38:54;95866.50;;;26.16;51.50
21185;BME280;18176;49.502;11.754;2023-08-06T13:42:55;95883.53;;;26.51;50.22
21185;BME280;18176;49.502;11.754;2023-08-06T13:46:58;95890.38;;;25.01;53.45
21185;BME280;18176;49.502;11.754;2023-08-06T13:50:58;95910.31;;;22.87;57.78
21185;BME280;18176;49.502;11.754;2023-08-06T13:54:59;95911.84;;;22.76;59.28
21185;BME280;18176;49.502;11.754;2023-08-06T13:59:01;95901.34;;;22.54;59.37
21185;BME280;18176;49.502;11.754;2023-08-06T14:03:05;95915.59;;;22.63;58.54
21185;BME280;18176;49.502;11.754;2023-08-06T14:07:06;95899.88;;;21.95;59.25
21185;BME280;18176;49.502;11.754;2023-08-06T14:11:07;95919.69;;;22.69;59.06
21185;BME280;18176;49.502;11.754;2023-08-06T14:15:10;95919.72;;;23.47;57.99
21185;BME280;18176;49.502;11.754;2023-08-06T14:19:13;95919.94;;;23.42;55.35
21185;BME280;18176;49.502;11.754;2023-08-06T14:23:13;95908.88;;;24.31;53.31
21185;BME280;18176;49.502;11.754;2023-08-06T14:27:14;95915.94;;;25.16;51.03
21185;BME280;18176;49.502;11.754;2023-08-06T14:31:14;95900.28;;;25.52;49.18
21185;BME280;18176;49.502;11.754;2023-08-06T14:35:17;95947.94;;;24.18;51.25
21185;BME280;18176;49.502;11.754;2023-08-06T14:39:18;95919.19;;;23.90;53.70
21185;BME280;18176;49.502;11.754;2023-08-06T14:43:18;95923.94;;;24.57;52.39
21185;BME280;18176;49.502;11.754;2023-08-06T14:47:18;95963.06;;;24.19;51.73
21185;BME280;18176;49.502;11.754;2023-08-06T14:51:22;95947.38;;;23.32;54.32
21185;BME280;18176;49.502;11.754;2023-08-06T14:55:26;95955.16;;;23.78;55.43
21185;BME280;18176;49.502;11.754;2023-08-06T14:59:26;95968.38;;;23.14;56.37
21185;BME280;18176;49.502;11.754;2023-08-06T15:03:29;95978.06;;;22.03;60.43
21185;BME280;18176;49.502;11.754;2023-08-06T15:07:36;95980.72;;;22.41;61.16
21185;BME280;18176;49.502;11.754;2023-08-06T15:11:37;95990.38;;;21.84;61.40
21185;BME280;18176;49.502;11.754;2023-08-06T15:15:37;95990.88;;;20.88;62.90
21185;BME280;18176;49.502;11.754;2023-08-06T15:19:39;95994.97;;;20.94;63.69
21185;BME280;18176;49.502;11.754;2023-08-06T15:23:43;95985.63;;;20.74;64.54
21185;BME280;18176;49.502;11.754;2023-08-06T15:27:43;96002.56;;;20.75;64.91
21185;BME280;18176;49.502;11.754;2023-08-06T15:31:43;96006.06;;;20.67;65.60
21185;BME280;18176;49.502;11.754;2023-08-06T15:35:44;96029.19;;;20.51;65.05
21185;BME280;18176;49.502;11.754;2023-08-06T15:39:47;96015.56;;;20.56;64.68
21185;BME280;18176;49.502;11.754;2023-08-06T15:43:47;95998.84;;;20.19;64.66
21185;BME280;18176;49.502;11.754;2023-08-06T15:47:48;96023.13;;;20.28;65.10
21185;BME280;18176;49.502;11.754;2023-08-06T15:51:48;96051.50;;;19.73;66.28
21185;BME280;18176;49.502;11.754;2023-08-06T15:55:52;96040.38;;;19.96;65.56
21185;BME280;18176;49.502;11.754;2023-08-06T15:59:53;96041.47;;;19.87;66.38
21185;BME280;18176;49.502;11.754;2023-08-06T16:03:53;96050.16;;;19.92;66.42
21185;BME280;18176;49.502;11.754;2023-08-06T16:07:54;96054.69;;;19.75;67.46
21185;BME280;18176;49.502;11.754;2023-08-06T16:11:58;96005.34;;;19.40;66.66
21185;BME280;18176;49.502;11.754;2023-08-06T16:15:58;96084.81;;;19.63;66.98
21185;BME280;18176;49.502;11.754;2023-08-06T16:20:00;96057.16;;;19.40;67.05
21185;BME280;18176;49.502;11.754;2023-08-06T16:24:01;96071.13;;;19.51;66.47
21185;BME280;18176;49.502;11.754;2023-08-06T16:28:04;96082.91;;;19.41;66.51
21185;BME280;18176;49.502;11.754;2023-08-06T16:32:06;96070.16;;;19.47;67.23
21185;BME280;18176;49.502;11.754;2023-08-06T16:36:06;96075.81;;;19.68;66.28
21185;BME280;18176;49.502;11.754;2023-08-06T16:40:08;96101.81;;;19.50;66.42
21185;BME280;18176;49.502;11.754;2023-08-06T16:44:12;96081.41;;;19.49;66.44
21185;BME280;18176;49.502;11.754;2023-08-06T16:48:12;96065.72;;;19.42;66.25
21185;BME280;18176;49.502;11.754;2023-08-06T16:52:13;96062.41;;;19.76;64.66
21185;BME280;18176;49.502;11.754;2023-08-06T16:56:14;96079.16;;;19.73;64.54
21185;BME280;18176;49.502;11.754;2023-08-06T17:00:17;96042.78;;;19.23;63.32
21185;BME280;18176;49.502;11.754;2023-08-06T17:04:18;96088.41;;;19.58;63.47
21185;BME280;18176;49.502;11.754;2023-08-06T17:08:18;96070.28;;;19.20;64.31
21185;BME280;18176;49.502;11.754;2023-08-06T17:12:18;96110.09;;;19.62;63.55
21185;BME280;18176;49.502;11.754;2023-08-06T17:16:21;96067.31;;;19.74;62.46
21185;BME280;18176;49.502;11.754;2023-08-06T17:20:22;96100.69;;;20.12;63.00
21185;BME280;18176;49.502;11.754;2023-08-06T17:24:22;96108.06;;;19.68;64.02
21185;BME280;18176;49.502;11.754;2023-08-06T17:28:22;96105.78;;;19.83;64.05
21185;BME280;18176;49.502;11.754;2023-08-06T17:32:25;96103.09;;;19.83;64.74
21185;BME280;18176;49.502;11.754;2023-08-06T17:36:26;96112.38;;;19.33;66.77
21185;BME280;18176;49.502;11.754;2023-08-06T17:40:28;96107.13;;;19.06;67.22
21185;BME280;18176;49.502;11.754;2023-08-06T17:44:28;96096.97;;;19.25;66.18
21185;BME280;18176;49.502;11.754;2023-08-06T17:48:31;96120.47;;;19.55;65.53
21185;BME280;18176;49.502;11.754;2023-08-06T17:52:32;96124.53;;;19.66;65.19
21185;BME280;18176;49.502;11.754;2023-08-06T17:56:33;96128.25;;;19.56;65.58
21185;BME280;18176;49.502;11.754;2023-08-06T18:00:33;96103.78;;;18.86;66.91
21185;BME280;18176;49.502;11.754;2023-08-06T18:04:36;96125.81;;;19.11;66.78
21185;BME280;18176;49.502;11.754;2023-08-06T18:08:37;96136.34;;;19.07;66.65
21185;BME280;18176;49.502;11.754;2023-08-06T18:12:37;96112.63;;;19.23;66.13
21185;BME280;18176;49.502;11.754;2023-08-06T18:16:40;96137.66;;;19.32;66.44
21185;BME280;18176;49.502;11.754;2023-08-06T18:20:43;96144.06;;;19.36;66.37
21185;BME280;18176;49.502;11.754;2023-08-06T18:24:43;96141.41;;;19.09;66.47
21185;BME280;18176;49.502;11.754;2023-08-06T18:28:44;96143.06;;;19.18;66.77
21185;BME280;18176;49.502;11.754;2023-08-06T18:32:45;96031.13;;;18.47;66.39
21185;BME280;18176;49.502;11.754;2023-08-06T18:36:48;96119.28;;;18.89;66.36
21185;BME280;18176;49.502;11.754;2023-08-06T18:40:56;96137.94;;;19.44;65.55
21185;BME280;18176;49.502;11.754;2023-08-06T18:44:57;96092.72;;;19.02;65.64
21185;BME280;18176;49.502;11.754;2023-08-06T18:48:58;96161.41;;;19.03;65.77
21185;BME280;18176;49.502;11.754;2023-08-06T18:53:04;96165.91;;;19.43;64.91
21185;BME280;18176;49.502;11.754;2023-08-06T18:57:05;96164.78;;;19.08;65.06
21185;BME280;18176;49.502;11.754;2023-08-06T19:01:06;96145.47;;;18.57;65.87
21185;BME280;18176;49.502;11.754;2023-08-06T19:05:09;96185.50;;;18.94;65.85
21185;BME280;18176;49.502;11.754;2023-08-06T19:09:18;96171.72;;;18.46;65.61
21185;BME280;18176;49.502;11.754;2023-08-06T19:13:18;96200.91;;;18.75;65.40
21185;BME280;18176;49.502;11.754;2023-08-06T19:17:19;96153.28;;;18.26;66.49
21185;BME280;18176;49.502;11.754;2023-08-06T19:21:19;96202.22;;;18.50;66.88
21185;BME280;18176;49.502;11.754;2023-08-06T19:25:22;96195.44;;;18.80;65.59
21185;BME280;18176;49.502;11.754;2023-08-06T19:29:25;96184.72;;;18.80;65.05
21185;BME280;18176;49.502;11.754;2023-08-06T19:33:26;96187.88;;;18.96;64.71
21185;BME280;18176;49.502;11.754;2023-08-06T19:37:26;96189.09;;;18.62;65.90
21185;BME280;18176;49.502;11.754;2023-08-06T19:41:30;96206.59;;;18.46;65.84
21185;BME280;18176;49.502;11.754;2023-08-06T19:45:30;96185.06;;;18.33;65.70
21185;BME280;18176;49.502;11.754;2023-08-06T19:49:31;96214.03;;;18.63;65.54
21185;BME280;18176;49.502;11.754;2023-08-06T19:53:34;96212.38;;;18.67;65.17
21185;BME280;18176;49.502;11.754;2023-08-06T19:57:39;96185.91;;;18.87;64.25
21185;BME280;18176;49.502;11.754;2023-08-06T20:01:40;96161.66;;;18.65;64.52
21185;BME280;18176;49.502;11.754;2023-08-06T20:05:42;96214.81;;;19.18;63.89
21185;BME280;18176;49.502;11.754;2023-08-06T20:09:43;96194.00;;;18.28;66.72
21185;BME280;18176;49.502;11.754;2023-08-06T20:13:46;96207.16;;;18.43;66.63
21185;BME280;18176;49.502;11.754;2023-08-06T20:17:48;96186.69;;;18.61;66.36
21185;BME280;18176;49.502;11.754;2023-08-06T20:21:49;96160.88;;;18.51;65.91
21185;BME280;18176;49.502;11.754;2023-08-06T20:25:50;96201.09;;;18.51;66.49
21185;BME280;18176;49.502;11.754;2023-08-06T20:29:54;96204.72;;;18.74;66.33
21185;BME280;18176;49.502;11.754;2023-08-06T20:33:55;96149.09;;;18.20;66.78
21185;BME280;18176;49.502;11.754;2023-08-06T20:37:55;96181.72;;;18.81;65.85
21185;BME280;18176;49.502;11.754;2023-08-06T20:41:56;96191.97;;;18.79;65.65
21185;BME280;18176;49.502;11.754;2023-08-06T20:45:59;96194.00;;;19.23;65.00
21185;BME280;18176;49.502;11.754;2023-08-06T20:50:02;96196.19;;;19.21;64.89
21185;BME280;18176;49.502;11.754;2023-08-06T20:54:03;96202.81;;;19.02;64.83
21185;BME280;18176;49.502;11.754;2023-08-06T20:58:04;96195.44;;;18.93;65.39
21185;BME280;18176;49.502;11.754;2023-08-06T21:02:08;96208.78;;;18.71;66.03
21185;BME280;18176;49.502;11.754;2023-08-06T21:06:09;96196.25;;;18.53;66.28